Latest Weather Observations for Centre Island

IDD60801

Issued at 10:01 pm CST Tuesday 31 March 2015 (issued every 30 minutes, with the page automatically refreshed every 10 minutes)

About weather observations | Map of weather stations | Latest weather observations for NT | Other Formats
Station Details ID: 014703 Name: CENTRE ISLAND Lat: -15.74 Lon: 136.82 Height: 12.2 m
Data from the previous 72 hours. | See also: Recent months at Centre Island
Date/Time
CST
Temp
°C
App
Temp
°C
Dew
Point
Rel
Hum
%
Delta-T
°C
Wind Press
QNH
hPa
Press
MSL
hPa
Rain
since 9 am
mm
Dir
 
Spd
km/h
Gust
km/h
Spd
kts
Gust
kts
31/10:00pm 29.6 32.7 24.2 73 3.8 NNE 15 20 8 11 1012.2 1012.1 0.0
31/09:30pm 29.8 32.7 24.4 73 3.8 NNE 17 20 9 11 1012.3 1012.2 0.0
31/09:00pm 29.8 32.2 24.2 72 3.9 NNE 19 24 10 13 1012.0 1011.9 0.0
31/08:30pm 29.9 32.2 24.1 71 4.0 NNE 19 24 10 13 1011.7 1011.6 0.0
31/08:00pm 29.8 32.7 24.4 73 3.8 NNE 17 22 9 12 1011.6 1011.5 0.0
31/07:30pm 29.9 32.8 24.5 73 3.8 NNE 17 22 9 12 1011.5 1011.4 0.0
31/07:00pm 30.0 32.9 24.4 72 3.9 NNE 17 24 9 13 1011.2 1011.1 0.0
31/06:30pm 30.2 32.5 24.1 70 4.2 NNE 19 24 10 13 1011.0 1010.9 0.0
31/06:00pm 30.8 33.3 24.4 68 4.5 NNE 19 22 10 12 1010.7 1010.6 0.0
31/05:30pm 31.3 33.1 24.2 66 5.0 NNE 22 28 12 15 1010.6 1010.5 0.0
31/05:00pm 31.8 33.9 24.7 66 5.0 NNE 22 30 12 16 1010.3 1010.2 0.0
31/04:30pm 32.5 34.8 24.5 62 5.6 NNE 20 28 11 15 1010.3 1010.2 0.0
31/04:00pm 33.0 35.7 24.2 60 6.2 NNE 17 24 9 13 1010.4 1010.3 0.0
31/03:30pm 33.0 35.4 23.6 57 6.5 NNE 17 20 9 11 1010.3 1010.2 0.0
31/03:00pm 33.7 36.9 24.3 58 6.6 NE 15 20 8 11 1010.4 1010.3 0.0
31/02:30pm 33.0 36.0 23.3 56 6.7 NE 13 17 7 9 1010.8 1010.7 0.0
31/02:00pm 33.2 36.7 23.5 56 6.7 NE 11 17 6 9 1011.2 1011.1 0.0
31/01:30pm 34.0 37.8 24.0 56 7.0 NE 11 13 6 7 1011.7 1011.6 0.0
31/01:00pm 33.3 37.0 23.3 55 6.9 NNE 9 13 5 7 1012.2 1012.1 0.0
31/12:30pm 33.7 37.8 24.0 57 6.8 ESE 9 11 5 6 1012.6 1012.5 0.0
31/12:00pm 32.2 35.7 22.9 58 6.4 SE 9 13 5 7 1013.1 1013.0 0.0
31/11:30am 32.1 35.6 22.8 58 6.4 SSE 9 13 5 7 1013.5 1013.4 0.0
31/11:00am 32.0 35.8 23.5 60 5.9 SE 9 13 5 7 1014.0 1013.9 0.0
31/10:30am 31.1 34.7 23.7 64 5.1 SSE 11 13 6 7 1014.4 1014.3 0.0
31/10:00am 31.0 35.0 24.4 68 4.6 S 11 13 6 7 1014.6 1014.5 0.0
31/09:30am 30.4 34.1 24.5 70 4.1 S 13 17 7 9 1014.5 1014.4 0.0
31/09:00am 29.9 33.3 24.1 71 4.0 SSE 13 17 7 9 1014.3 1014.2 0.0
31/08:30am 29.7 33.4 24.6 74 3.6 S 13 17 7 9 1014.1 1014.0 0.0
31/08:00am 29.2 33.6 24.5 76 3.3 S 9 13 5 7 1013.7 1013.6 0.0
31/07:30am 28.5 33.7 23.6 75 3.4 NW 2 6 1 3 1013.4 1013.3 0.0
31/07:00am 27.1 31.6 23.6 81 2.4 NW 6 7 3 4 1013.0 1012.9 0.0
31/06:30am 26.7 30.9 23.2 81 2.4 NW 6 7 3 4 1012.6 1012.5 0.0
31/06:00am 26.6 31.0 23.5 83 2.1 NW 6 6 3 3 1012.1 1012.0 0.0
31/05:30am 26.8 31.2 23.5 82 2.3 NW 6 7 3 4 1012.0 1011.9 0.0
31/05:00am 27.0 30.9 23.0 79 2.7 NW 7 7 4 4 1011.7 1011.6 0.0
31/04:30am 27.4 31.5 23.2 78 2.9 NNW 7 9 4 5 1011.7 1011.6 0.0
31/04:00am 28.5 31.9 23.4 74 3.5 NNE 11 13 6 7 1011.6 1011.5 0.0
31/03:30am 28.6 31.5 23.1 72 3.8 NNE 13 17 7 9 1011.4 1011.3 0.0
31/03:00am 28.8 31.7 23.2 71 3.8 NE 13 17 7 9 1011.5 1011.4 0.0
31/02:30am 28.9 31.8 23.8 74 3.5 ENE 15 19 8 10 1011.6 1011.5 0.0
31/02:00am 28.9 31.8 23.1 71 4.0 NE 13 19 7 10 1011.9 1011.8 0.0
31/01:30am 28.9 31.5 23.3 72 3.8 ENE 15 19 8 10 1012.0 1011.9 0.0
31/01:00am 29.0 31.5 23.2 71 4.0 ENE 15 19 8 10 1012.4 1012.3 0.0
31/12:30am 29.1 31.4 22.8 69 4.3 ENE 15 19 8 10 1012.8 1012.7 0.0
31/12:00am 29.1 31.0 22.8 69 4.3 ENE 17 20 9 11 1013.0 1012.9 0.0
 
Date/Time
CST
Temp
°C
App
Temp
°C
Dew
Point
Rel
Hum
%
Delta-T
°C
Wind Press
QNH
hPa
Press
MSL
hPa
Rain
since 9 am
mm
Dir
 
Spd
km/h
Gust
km/h
Spd
kts
Gust
kts
30/11:30pm 29.1 31.3 22.6 68 4.4 ENE 15 19 8 10 1013.3 1013.2 0.0
30/11:00pm 29.2 31.1 22.7 68 4.4 ENE 17 20 9 11 1013.3 1013.2 0.0
30/10:30pm 29.3 31.0 23.0 69 4.3 E 19 20 10 11 1013.6 1013.5 0.0
30/10:00pm 29.4 31.2 23.3 69 4.2 E 19 22 10 12 1013.9 1013.8 0.0
30/09:30pm 29.6 31.4 23.3 69 4.3 ESE 19 22 10 12 1014.0 1013.9 0.0
30/09:00pm 29.5 31.9 23.7 71 4.0 ESE 17 22 9 12 1013.7 1013.6 0.0
30/08:30pm 29.6 32.1 23.8 71 4.0 ESE 17 20 9 11 1013.7 1013.6 0.0
30/08:00pm 29.6 32.1 23.8 71 4.0 E 17 19 9 10 1013.3 1013.2 0.0
30/07:30pm 29.8 32.2 23.7 70 4.2 E 17 20 9 11 1013.3 1013.2 0.0
30/07:00pm 30.0 32.3 23.4 67 4.5 E 17 20 9 11 1013.1 1013.0 0.0
30/06:30pm 30.4 32.0 23.3 66 4.9 E 20 24 11 13 1012.7 1012.6 0.0
30/06:00pm 31.2 33.0 23.6 64 5.3 E 20 26 11 14 1012.4 1012.3 0.0
30/05:30pm 31.6 32.4 23.2 61 5.8 E 24 28 13 15 1012.1 1012.0 0.0
30/05:00pm 32.9 35.0 24.1 60 6.2 E 20 26 11 14 1011.9 1011.8 0.0
30/04:30pm 33.2 35.0 23.5 56 6.7 E 20 28 11 15 1011.8 1011.7 0.0
30/04:00pm 33.0 35.7 24.2 60 6.2 NE 17 26 9 14 1012.0 1011.9 0.0
30/03:30pm 33.2 35.1 24.4 60 6.2 NE 22 28 12 15 1011.9 1011.8 0.0
30/03:00pm 33.5 35.6 24.1 58 6.6 NE 20 28 11 15 1012.1 1012.0 0.0
30/02:30pm 34.0 36.5 24.8 58 6.5 NNE 20 26 11 14 1012.1 1012.0 0.0
30/02:00pm 33.6 37.1 24.8 60 6.2 ENE 15 24 8 13 1012.4 1012.3 0.0
30/01:30pm 31.7 35.2 24.8 67 4.9 SE 15 19 8 10 1012.6 1012.5 0.0
30/01:00pm 33.6 36.5 24.5 59 6.4 ESE 17 20 9 11 1012.9 1012.8 0.0
30/12:30pm 32.4 35.0 25.5 67 4.9 ESE 22 26 12 14 1013.6 1013.5 0.0
30/12:00pm 32.5 35.2 25.1 65 5.2 SE 20 26 11 14 1013.9 1013.8 0.0
30/11:30am 32.7 35.8 24.2 61 5.9 SE 15 17 8 9 1014.4 1014.3 0.0
30/11:00am 32.3 35.9 24.3 62 5.6 SE 13 17 7 9 1014.6 1014.5 0.0
30/10:30am 31.6 35.3 24.5 66 5.0 SSE 13 17 7 9 1014.9 1014.8 0.0
30/10:00am 31.4 34.3 24.5 67 4.8 SSE 17 20 9 11 1015.1 1015.0 0.0
30/09:30am 31.0 34.2 24.9 70 4.3 SE 17 20 9 11 1015.2 1015.1 0.0
30/09:00am 30.4 34.0 25.0 73 3.8 SE 15 17 8 9 1015.2 1015.1 0.0
30/08:30am 29.7 33.6 24.8 75 3.4 SSE 13 15 7 8 1014.8 1014.7 0.0
30/08:00am 29.2 32.9 24.5 76 3.3 SSE 13 15 7 8 1014.2 1014.1 0.0
30/07:30am 28.8 32.5 24.6 78 2.9 SSE 13 15 7 8 1013.8 1013.7 0.0
30/07:00am 28.0 32.2 24.8 83 2.2 S 11 15 6 8 1013.2 1013.1 0.0
30/06:30am 27.8 32.5 25.0 85 2.0 S 9 11 5 6 1012.9 1012.8 0.0
30/06:00am 27.1 32.7 23.6 81 2.4 CALM 0 0 0 0 1012.6 1012.5 0.0
30/05:30am 27.4 31.2 22.8 76 3.1 E 7 9 4 5 1012.4 1012.3 0.0
30/05:00am 27.2 31.1 22.6 76 3.1 E 6 7 3 4 1012.1 1012.0 0.0
30/04:30am 27.4 31.4 22.8 76 3.1 E 6 7 3 4 1011.8 1011.7 0.0
30/04:00am 27.6 31.6 22.8 75 3.3 ESE 6 6 3 3 1011.7 1011.6 0.0
30/03:30am 27.7 31.9 23.1 76 3.1 E 6 7 3 4 1011.7 1011.6 0.0
30/03:00am 27.8 31.8 22.7 74 3.5 E 6 7 3 4 1011.7 1011.6 0.0
30/02:30am 28.1 31.6 22.8 73 3.6 ENE 9 9 5 5 1012.0 1011.9 0.0
30/02:00am 28.4 32.0 23.1 73 3.6 ENE 9 11 5 6 1012.1 1012.0 0.0
30/01:30am 28.8 32.1 23.2 71 3.8 NE 11 15 6 8 1012.4 1012.3 0.0
30/01:00am 28.9 32.4 23.6 73 3.6 NE 11 15 6 8 1012.8 1012.7 0.0
30/12:30am 28.9 32.2 23.8 74 3.5 NE 13 17 7 9 1013.2 1013.1 0.0
30/12:00am 29.0 32.2 23.7 73 3.7 NE 13 17 7 9 1013.5 1013.4 0.0
 
Date/Time
CST
Temp
°C
App
Temp
°C
Dew
Point
Rel
Hum
%
Delta-T
°C
Wind Press
QNH
hPa
Press
MSL
hPa
Rain
since 9 am
mm
Dir
 
Spd
km/h
Gust
km/h
Spd
kts
Gust
kts
29/11:30pm 29.1 32.0 23.8 73 3.7 NE 15 20 8 11 1013.8 1013.7 0.0
29/11:00pm 29.1 32.5 24.0 74 3.5 NE 13 17 7 9 1013.6 1013.5 0.0
29/10:30pm 29.2 31.5 23.4 71 4.0 NE 17 20 9 11 1013.7 1013.6 0.0
29/10:00pm 29.3 31.9 24.0 73 3.7 NE 17 22 9 12 1013.7 1013.6 0.0
29/09:30pm 29.3 32.1 23.7 72 3.9 ENE 15 20 8 11 1013.5 1013.4 0.0
29/09:00pm 29.4 32.0 24.0 72 3.7 ENE 17 20 9 11 1013.3 1013.2 0.0
29/08:30pm 29.6 32.3 24.2 73 3.8 ENE 17 22 9 12 1013.2 1013.1 0.0
29/08:00pm 29.7 32.1 23.6 69 4.2 NE 17 20 9 11 1013.0 1012.9 0.0
29/07:30pm 29.8 31.7 23.5 69 4.3 NE 19 24 10 13 1012.8 1012.7 0.0
29/07:00pm 30.0 32.1 23.7 69 4.4 NE 19 24 10 13 1012.6 1012.5 0.0
29/06:30pm 30.2 31.7 23.1 65 4.9 NE 20 26 11 14 1012.4 1012.3 0.0
29/06:00pm 30.9 32.7 24.3 68 4.6 NE 22 30 12 16 1012.0 1011.9 0.0
29/05:30pm 31.7 33.3 23.8 63 5.5 NNE 22 28 12 15 1011.6 1011.5 0.0
29/05:00pm 32.1 33.7 23.9 62 5.7 NNE 22 30 12 16 1011.6 1011.5 0.0
29/04:30pm 32.9 35.0 24.1 60 6.2 NE 20 28 11 15 1011.4 1011.3 0.0
29/04:00pm 33.2 35.5 23.5 56 6.7 NE 17 26 9 14 1011.3 1011.2 0.0
29/03:30pm 33.1 37.2 24.0 59 6.4 NE 9 13 5 7 1011.5 1011.4 0.0
29/03:00pm 33.8 37.2 24.7 59 6.4 ESE 15 20 8 11 1011.7 1011.6 0.0
29/02:30pm 33.5 36.9 24.7 60 6.2 ESE 15 19 8 10 1011.8 1011.7 0.0
29/02:00pm 33.0 36.3 24.5 61 6.0 SE 15 19 8 10 1012.1 1012.0 0.0
29/01:30pm 33.2 35.9 24.1 59 6.4 ESE 17 20 9 11 1012.5 1012.4 0.0
29/01:00pm 32.8 36.9 24.0 60 6.1 ESE 9 13 5 7 1013.0 1012.9 0.0
29/12:30pm 32.4 36.1 23.3 58 6.3 SE 9 9 5 5 1013.4 1013.3 0.0
29/12:00pm 31.7 35.8 23.2 60 5.9 SE 7 11 4 6 1013.8 1013.7 0.0
29/11:30am 31.8 36.3 23.9 63 5.5 SSE 7 11 4 6 1014.3 1014.2 0.0
29/11:00am 31.6 35.9 24.2 65 5.2 SSE 9 11 5 6 1014.4 1014.3 0.0
29/10:30am 31.2 35.0 24.1 66 4.9 SSE 11 13 6 7 1014.5 1014.4 0.0
29/10:00am 31.3 35.6 24.2 66 5.0 SE 9 13 5 7 1014.6 1014.5 0.0
29/09:30am 30.8 35.2 24.4 68 4.5 SSE 9 11 5 6 1014.7 1014.6 0.0
29/09:00am 30.3 34.7 24.4 70 4.1 S 9 13 5 7 1014.4 1014.3 0.0
29/08:30am 29.7 33.6 24.3 73 3.8 S 11 15 6 8 1014.0 1013.9 0.0
29/08:00am 29.7 34.3 24.8 75 3.4 SSW 9 11 5 6 1013.9 1013.8 0.0
29/07:30am 29.1 34.7 24.9 78 2.9 SSE 4 7 2 4 1013.3 1013.2 0.0
29/07:00am 28.2 34.1 25.4 85 2.0 W 4 11 2 6 1013.2 1013.1 0.0
29/06:30am 27.1 32.9 24.0 83 2.1 CALM 0 0 0 0 1012.9 1012.8 0.0
29/06:00am 27.3 33.0 24.4 84 2.0 NNW 2 7 1 4 1012.6 1012.5 0.0
29/05:30am 27.1 31.9 24.2 84 2.0 NNW 6 7 3 4 1012.3 1012.2 0.0
29/05:00am 27.1 32.2 24.0 83 2.1 NNW 4 6 2 3 1011.9 1011.8 0.0
29/04:30am 27.2 31.5 23.7 81 2.4 NNW 7 7 4 4 1011.5 1011.4 0.0
29/04:00am 27.3 31.5 23.5 80 2.6 NNW 7 9 4 5 1011.4 1011.3 0.0
29/03:30am 27.4 31.8 23.8 81 2.5 NNW 7 9 4 5 1011.5 1011.4 0.0
29/03:00am 27.6 32.0 23.8 80 2.6 NNW 7 9 4 5 1011.8 1011.7 0.0
29/02:30am 27.7 32.2 23.7 79 2.8 NNW 6 7 3 4 1011.9 1011.8 0.0
29/02:00am 27.8 32.1 23.6 78 2.9 NNW 7 9 4 5 1012.1 1012.0 0.0
29/01:30am 27.9 31.7 23.5 77 3.0 NNW 9 9 5 5 1012.3 1012.2 0.0
29/01:00am 28.2 32.3 23.3 75 3.4 NNW 7 11 4 6 1012.6 1012.5 0.0
29/12:30am 28.6 32.4 23.5 74 3.5 N 9 13 5 7 1012.7 1012.6 0.0
29/12:00am 28.6 32.7 23.9 75 3.2 N 9 15 5 8 1013.1 1013.0 0.0
 
Date/Time
CST
Temp
°C
App
Temp
°C
Dew
Point
Rel
Hum
%
Delta-T
°C
Wind Press
QNH
hPa
Press
MSL
hPa
Rain
since 9 am
mm
Dir
 
Spd
km/h
Gust
km/h
Spd
kts
Gust
kts
28/11:30pm 28.3 32.5 23.4 75 3.4 NNW 7 9 4 5 1013.4 1013.3 0.0
28/11:00pm 28.4 32.5 23.3 74 3.5 NNW 7 9 4 5 1013.4 1013.3 0.0
28/10:30pm 28.6 32.7 23.3 73 3.6 NNW 7 9 4 5 1013.4 1013.3 0.0

Other Formats:

Comma delimited format used in spreadsheet applications
http://www.bom.gov.au/fwo/IDD60801/IDD60801.94248.axf

JavaScript Object Notation format (JSON) in row-major order
http://www.bom.gov.au/fwo/IDD60801/IDD60801.94248.json